createdAt,value
2019-01-12T00:00:08.005Z,1009.12
2019-01-12T00:01:07.929Z,1009.09
2019-01-12T00:02:07.890Z,1009.09
2019-01-12T00:03:07.880Z,1009.16
2019-01-12T00:04:07.769Z,1009.12
2019-01-12T00:05:07.720Z,1009.11
2019-01-12T00:06:07.657Z,1009.14
2019-01-12T00:07:07.600Z,1009.09
2019-01-12T00:08:07.570Z,1009.05
2019-01-12T00:09:07.505Z,1009.09
2019-01-12T00:10:07.429Z,1009.03
2019-01-12T00:11:07.439Z,1009.06
2019-01-12T00:12:07.334Z,1009.06
2019-01-12T00:13:07.350Z,1009.06
2019-01-12T00:14:07.225Z,1009.07
2019-01-12T00:15:07.161Z,1009.05
2019-01-12T00:16:07.111Z,1009.07
2019-01-12T00:17:07.042Z,1009.06
2019-01-12T00:18:07.032Z,1009.05
2019-01-12T00:19:06.933Z,1009.10
2019-01-12T00:20:06.881Z,1009.10
2019-01-12T00:21:06.833Z,1009.08
2019-01-12T00:22:06.781Z,1009.10
2019-01-12T00:23:06.751Z,1009.10
2019-01-12T00:24:06.657Z,1009.06
2019-01-12T00:25:06.615Z,1009.09
2019-01-12T00:26:06.556Z,1009.09
2019-01-12T00:27:06.485Z,1009.10
2019-01-12T00:28:06.472Z,1009.11
2019-01-12T00:29:06.395Z,1009.08
2019-01-12T00:30:06.336Z,1009.08
2019-01-12T00:31:06.288Z,1009.12
2019-01-12T00:32:06.213Z,1009.11
2019-01-12T00:33:06.191Z,1009.12
2019-01-12T00:34:06.102Z,1009.09
2019-01-12T00:35:06.074Z,1009.10
2019-01-12T00:36:06.009Z,1009.05
2019-01-12T00:37:05.936Z,1009.06
2019-01-12T00:38:05.904Z,1009.02
2019-01-12T00:39:05.840Z,1009.07
2019-01-12T00:40:05.776Z,1009.06
2019-01-12T00:41:05.741Z,1009.05
2019-01-12T00:42:05.658Z,1009.07
2019-01-12T00:43:05.649Z,1009.07
2019-01-12T00:44:05.747Z,1009.08
2019-01-12T00:45:05.518Z,1009.09
2019-01-12T00:46:05.459Z,1009.05
2019-01-12T00:47:05.383Z,1009.07
2019-01-12T00:48:05.366Z,1009.05
2019-01-12T00:49:05.283Z,1009.05
2019-01-12T00:50:05.232Z,1009.05
2019-01-12T00:51:05.166Z,1009.01
2019-01-12T00:52:05.117Z,1009.03
2019-01-12T00:53:05.068Z,1009.04
2019-01-12T00:54:05.044Z,1009.05
2019-01-12T00:55:04.953Z,1009.05
2019-01-12T00:56:04.898Z,1009.05
2019-01-12T00:57:04.846Z,1008.97
2019-01-12T00:58:04.768Z,1009.00
2019-01-12T00:59:04.769Z,1009.02
2019-01-12T01:00:04.681Z,1009.04
2019-01-12T01:01:04.604Z,1009.06
2019-01-12T01:02:04.564Z,1009.03
2019-01-12T01:03:04.509Z,1009.05
2019-01-12T01:04:04.496Z,1009.06
2019-01-12T01:05:04.411Z,1009.03
2019-01-12T01:06:04.345Z,1009.05
2019-01-12T01:07:04.274Z,1009.09
2019-01-12T01:08:04.221Z,1009.05
2019-01-12T01:09:04.201Z,1009.04
2019-01-12T01:10:04.107Z,1009.07
2019-01-12T01:11:04.070Z,1009.10
2019-01-12T01:12:04.044Z,1009.04
2019-01-12T01:13:03.949Z,1009.05
2019-01-12T01:14:03.953Z,1009.04
2019-01-12T01:15:03.844Z,1009.03
2019-01-12T01:16:03.795Z,1009.01
2019-01-12T01:17:03.743Z,1009.04
2019-01-12T01:18:03.663Z,1009.05
2019-01-12T01:19:03.653Z,1009.04
2019-01-12T01:20:03.567Z,1009.05
2019-01-12T01:21:03.502Z,1009.04
2019-01-12T01:22:03.464Z,1009.03
2019-01-12T01:23:03.394Z,1009.06
2019-01-12T01:24:03.381Z,1009.09
2019-01-12T01:25:03.300Z,1009.08
2019-01-12T01:26:03.256Z,1009.11
2019-01-12T01:27:03.206Z,1009.07
2019-01-12T01:28:03.235Z,1009.05
2019-01-12T01:29:03.269Z,1009.02
2019-01-12T01:30:03.025Z,1009.07
2019-01-12T01:31:02.956Z,1009.06
2019-01-12T01:32:02.899Z,1009.12
2019-01-12T01:33:02.832Z,1009.09
2019-01-12T01:34:02.802Z,1009.07
2019-01-12T01:35:02.730Z,1009.09
2019-01-12T01:36:02.665Z,1009.06
2019-01-12T01:37:02.647Z,1009.08
2019-01-12T01:38:02.573Z,1009.09
2019-01-12T01:39:02.529Z,1009.05
2019-01-12T01:40:02.448Z,1009.03
2019-01-12T01:41:02.386Z,1009.09
2019-01-12T01:42:02.334Z,1009.06
2019-01-12T01:43:02.287Z,1009.06
2019-01-12T01:44:02.256Z,1009.06
2019-01-12T01:45:02.172Z,1009.09
2019-01-12T01:46:02.122Z,1009.03
2019-01-12T01:47:02.055Z,1009.05
2019-01-12T01:48:02.027Z,1009.03
2019-01-12T01:49:01.986Z,1009.08
2019-01-12T01:50:01.909Z,1009.05
2019-01-12T01:51:01.830Z,1009.03
2019-01-12T01:52:01.784Z,1009.07
2019-01-12T01:53:01.725Z,1009.01
2019-01-12T01:54:01.700Z,1009.02
2019-01-12T01:55:01.613Z,1009.04
2019-01-12T01:56:01.591Z,1009.07
2019-01-12T01:57:01.512Z,1009.09
2019-01-12T01:58:01.450Z,1009.10
2019-01-12T01:59:01.393Z,1009.07
2019-01-12T02:00:01.334Z,1009.09
2019-01-12T02:01:01.301Z,1009.10
2019-01-12T02:02:01.222Z,1009.11
2019-01-12T02:03:01.248Z,1009.06
2019-01-12T02:04:01.110Z,1009.06
2019-01-12T02:05:01.121Z,1009.02
2019-01-12T02:06:01.006Z,1009.05
2019-01-12T02:07:01.026Z,1009.03
2019-01-12T02:08:00.893Z,1009.02
2019-01-12T02:09:00.837Z,1009.04
2019-01-12T02:10:00.811Z,1008.97
2019-01-12T02:11:00.758Z,1008.97
2019-01-12T02:12:00.682Z,1008.97
2019-01-12T02:13:00.658Z,1008.90
2019-01-12T02:14:00.566Z,1008.98
2019-01-12T02:15:00.599Z,1008.94
2019-01-12T02:16:00.455Z,1008.93
2019-01-12T02:17:00.426Z,1008.95
2019-01-12T02:18:00.335Z,1008.88
2019-01-12T02:19:00.363Z,1008.90
2019-01-12T02:20:00.306Z,1008.89
2019-01-12T02:21:00.176Z,1008.85
2019-01-12T02:22:00.119Z,1008.89
2019-01-12T02:23:00.125Z,1008.86
2019-01-12T02:24:00.020Z,1008.85
2019-01-12T02:25:00.321Z,1008.85
2019-01-12T02:25:59.911Z,1008.82
2019-01-12T02:26:59.841Z,1008.82
2019-01-12T02:27:59.823Z,1008.85
2019-01-12T02:28:59.871Z,1008.90
2019-01-12T02:29:59.700Z,1008.85
2019-01-12T02:30:59.614Z,1008.84
2019-01-12T02:31:59.593Z,1008.88
2019-01-12T02:32:59.519Z,1008.82
2019-01-12T02:33:59.447Z,1008.83
2019-01-12T02:34:59.532Z,1008.81
2019-01-12T02:35:59.377Z,1008.79
2019-01-12T02:36:59.343Z,1008.82
2019-01-12T02:37:59.246Z,1008.83
2019-01-12T02:38:59.175Z,1008.77
2019-01-12T02:39:59.189Z,1008.76
2019-01-12T02:40:59.074Z,1008.74
2019-01-12T02:41:59.006Z,1008.75
2019-01-12T02:42:58.947Z,1008.76
2019-01-12T02:43:58.951Z,1008.72
2019-01-12T02:44:58.851Z,1008.72
2019-01-12T02:45:58.826Z,1008.75
2019-01-12T02:46:58.730Z,1008.73
2019-01-12T02:47:58.703Z,1008.73
2019-01-12T02:48:58.628Z,1008.71
2019-01-12T02:49:58.571Z,1008.70
2019-01-12T02:50:58.550Z,1008.69
2019-01-12T02:51:58.475Z,1008.71
2019-01-12T02:52:58.411Z,1008.64
2019-01-12T02:53:58.354Z,1008.68
2019-01-12T02:54:58.303Z,1008.66
2019-01-12T02:55:58.253Z,1008.64
2019-01-12T02:56:58.238Z,1008.63
2019-01-12T02:57:58.124Z,1008.62
2019-01-12T02:58:58.069Z,1008.59
2019-01-12T02:59:58.016Z,1008.60
2019-01-12T03:00:57.995Z,1008.60
2019-01-12T03:01:57.894Z,1008.56
2019-01-12T03:02:57.861Z,1008.61
2019-01-12T03:03:57.785Z,1008.53
2019-01-12T03:04:57.742Z,1008.51
2019-01-12T03:05:57.749Z,1008.51
2019-01-12T03:06:57.644Z,1008.51
2019-01-12T03:07:57.574Z,1008.40
2019-01-12T03:08:57.541Z,1008.45
2019-01-12T03:09:57.467Z,1008.45
2019-01-12T03:10:57.433Z,1008.39
2019-01-12T03:11:57.348Z,1008.40
2019-01-12T03:12:57.297Z,1008.42
2019-01-12T03:13:57.233Z,1008.48
2019-01-12T03:14:57.184Z,1008.45
2019-01-12T03:15:57.171Z,1008.42
2019-01-12T03:16:57.074Z,1008.45
2019-01-12T03:17:57.008Z,1008.45
2019-01-12T03:18:57.007Z,1008.42
2019-01-12T03:19:56.905Z,1008.42
2019-01-12T03:20:56.872Z,1008.47
2019-01-12T03:21:56.785Z,1008.40
2019-01-12T03:22:56.741Z,1008.44
2019-01-12T03:23:56.673Z,1008.44
2019-01-12T03:24:56.629Z,1008.45
2019-01-12T03:25:56.660Z,1008.36
2019-01-12T03:26:56.536Z,1008.35
2019-01-12T03:27:56.456Z,1008.30
2019-01-12T03:28:56.420Z,1008.32
2019-01-12T03:29:56.409Z,1008.34
2019-01-12T03:30:56.330Z,1008.33
2019-01-12T03:31:56.254Z,1008.35
2019-01-12T03:32:56.180Z,1008.31
2019-01-12T03:33:56.117Z,1008.26
2019-01-12T03:34:56.068Z,1008.26
2019-01-12T03:35:56.028Z,1008.22
2019-01-12T03:36:56.051Z,1008.19
2019-01-12T03:37:55.897Z,1008.21
2019-01-12T03:38:55.835Z,1008.20
2019-01-12T03:39:55.821Z,1008.18
2019-01-12T03:40:55.811Z,1008.10
2019-01-12T03:41:55.672Z,1008.15
2019-01-12T03:42:55.628Z,1008.16
2019-01-12T03:43:55.562Z,1008.16
2019-01-12T03:44:55.786Z,1008.13
2019-01-12T03:45:55.480Z,1008.12
2019-01-12T03:46:55.424Z,1008.10
2019-01-12T03:47:55.343Z,1008.10
2019-01-12T03:48:55.282Z,1008.14
2019-01-12T03:49:55.232Z,1008.13
2019-01-12T03:50:55.170Z,1008.13
2019-01-12T03:51:55.288Z,1008.17
2019-01-12T03:52:55.077Z,1008.11
2019-01-12T03:53:55.004Z,1008.16
2019-01-12T03:54:54.951Z,1008.11
2019-01-12T03:55:54.911Z,1008.06
2019-01-12T03:56:54.880Z,1008.08
2019-01-12T03:57:54.780Z,1008.14
2019-01-12T03:58:54.827Z,1008.06
2019-01-12T03:59:54.667Z,1008.07
2019-01-12T04:00:54.620Z,1008.05
2019-01-12T04:01:54.705Z,1008.03
2019-01-12T04:02:54.799Z,1008.00
2019-01-12T04:03:54.459Z,1008.00
2019-01-12T04:04:54.390Z,1008.02
2019-01-12T04:05:54.339Z,1008.04
2019-01-12T04:06:54.337Z,1008.00
2019-01-12T04:07:54.241Z,1008.00
2019-01-12T04:08:54.200Z,1008.02
2019-01-12T04:09:54.109Z,1008.01
2019-01-12T04:10:54.068Z,1007.98
2019-01-12T04:11:54.037Z,1007.98
2019-01-12T04:12:53.957Z,1007.99
2019-01-12T04:13:53.900Z,1008.01
2019-01-12T04:14:53.836Z,1007.98
2019-01-12T04:15:53.791Z,1007.97
2019-01-12T04:16:53.758Z,1007.99
2019-01-12T04:17:53.676Z,1007.94
2019-01-12T04:18:53.621Z,1007.99
2019-01-12T04:19:53.565Z,1007.93
2019-01-12T04:20:53.524Z,1007.98
2019-01-12T04:21:53.486Z,1007.99
2019-01-12T04:22:53.392Z,1007.90
2019-01-12T04:23:53.360Z,1007.92
2019-01-12T04:24:53.285Z,1007.90
2019-01-12T04:25:53.269Z,1007.97
2019-01-12T04:26:53.207Z,1007.93
2019-01-12T04:27:53.125Z,1007.89
2019-01-12T04:28:53.056Z,1007.92
2019-01-12T04:29:53.028Z,1007.93
2019-01-12T04:30:52.948Z,1007.92
2019-01-12T04:31:52.953Z,1007.91
2019-01-12T04:32:52.842Z,1007.89
2019-01-12T04:33:52.787Z,1007.84
2019-01-12T04:34:52.737Z,1007.85
2019-01-12T04:35:52.684Z,1007.85
2019-01-12T04:36:52.622Z,1007.85
2019-01-12T04:37:52.611Z,1007.86
2019-01-12T04:38:52.513Z,1007.88
2019-01-12T04:39:52.443Z,1007.88
2019-01-12T04:40:52.395Z,1007.83
2019-01-12T04:41:52.336Z,1007.85
2019-01-12T04:42:52.323Z,1007.80
2019-01-12T04:43:52.220Z,1007.82
2019-01-12T04:44:52.171Z,1007.86
2019-01-12T04:45:52.117Z,1007.85
2019-01-12T04:46:52.066Z,1007.85
2019-01-12T04:47:52.037Z,1007.84
2019-01-12T04:48:51.975Z,1007.87
2019-01-12T04:49:51.898Z,1007.89
2019-01-12T04:50:51.844Z,1007.84
2019-01-12T04:51:51.799Z,1007.87
2019-01-12T04:52:52.058Z,1007.86
2019-01-12T04:53:51.760Z,1007.87
2019-01-12T04:54:51.804Z,1007.84
2019-01-12T04:55:51.696Z,1007.85
2019-01-12T04:56:51.495Z,1007.80
2019-01-12T04:57:51.473Z,1007.84
2019-01-12T04:58:51.390Z,1007.83
2019-01-12T04:59:51.342Z,1007.81
2019-01-12T05:00:51.287Z,1007.83
2019-01-12T05:01:51.233Z,1007.85
2019-01-12T05:02:51.195Z,1007.85
2019-01-12T05:03:51.108Z,1007.80
2019-01-12T05:04:51.048Z,1007.83
2019-01-12T05:05:50.999Z,1007.80
2019-01-12T05:06:50.952Z,1007.86
2019-01-12T05:07:50.915Z,1007.80
2019-01-12T05:08:50.831Z,1007.83
2019-01-12T05:09:50.775Z,1007.82
2019-01-12T05:10:50.740Z,1007.81
2019-01-12T05:11:50.668Z,1007.81
2019-01-12T05:12:50.633Z,1007.80
2019-01-12T05:13:50.561Z,1007.82
2019-01-12T05:14:50.505Z,1007.86
2019-01-12T05:15:50.450Z,1007.84
2019-01-12T05:16:50.388Z,1007.83
2019-01-12T05:17:50.362Z,1007.87
2019-01-12T05:18:50.276Z,1007.83
2019-01-12T05:19:50.225Z,1007.87
2019-01-12T05:20:50.158Z,1007.86
2019-01-12T05:21:50.106Z,1007.88
2019-01-12T05:22:50.105Z,1007.91
2019-01-12T05:23:50.014Z,1007.90
2019-01-12T05:24:49.979Z,1007.93
2019-01-12T05:25:49.909Z,1007.86
2019-01-12T05:26:49.829Z,1007.81
2019-01-12T05:27:49.835Z,1007.81
2019-01-12T05:28:49.726Z,1007.79
2019-01-12T05:29:49.669Z,1007.76
2019-01-12T05:30:49.604Z,1007.79
2019-01-12T05:31:49.555Z,1007.80
2019-01-12T05:32:49.566Z,1007.75
2019-01-12T05:33:49.451Z,1007.80
2019-01-12T05:34:49.397Z,1007.79
2019-01-12T05:35:49.346Z,1007.76
2019-01-12T05:36:49.309Z,1007.76
2019-01-12T05:37:49.225Z,1007.74
2019-01-12T05:38:49.198Z,1007.74
2019-01-12T05:39:49.105Z,1007.73
2019-01-12T05:40:49.076Z,1007.76
2019-01-12T05:41:48.991Z,1007.75
2019-01-12T05:42:48.939Z,1007.76
2019-01-12T05:43:48.914Z,1007.79
2019-01-12T05:44:48.829Z,1007.76
2019-01-12T05:45:48.778Z,1007.76
2019-01-12T05:46:48.719Z,1007.74
2019-01-12T05:47:48.663Z,1007.73
2019-01-12T05:48:48.646Z,1007.68
2019-01-12T05:49:48.556Z,1007.68
2019-01-12T05:50:48.493Z,1007.68
2019-01-12T05:51:48.442Z,1007.68
2019-01-12T05:52:48.377Z,1007.63
2019-01-12T05:53:48.355Z,1007.68
2019-01-12T05:54:48.278Z,1007.65
2019-01-12T05:55:48.222Z,1007.65
2019-01-12T05:56:48.167Z,1007.64
2019-01-12T05:57:48.112Z,1007.64
2019-01-12T05:58:48.110Z,1007.66
2019-01-12T05:59:48.011Z,1007.66
2019-01-12T06:00:47.944Z,1007.68
2019-01-12T06:01:47.917Z,1007.67
2019-01-12T06:02:47.830Z,1007.71
2019-01-12T06:03:47.980Z,1007.62
2019-01-12T06:04:47.824Z,1007.64
2019-01-12T06:05:47.669Z,1007.66
2019-01-12T06:06:47.938Z,1007.63
2019-01-12T06:07:47.549Z,1007.67
2019-01-12T06:08:47.516Z,1007.65
2019-01-12T06:09:47.443Z,1007.59
2019-01-12T06:10:47.385Z,1007.59
2019-01-12T06:11:47.325Z,1007.65
2019-01-12T06:12:47.263Z,1007.69
2019-01-12T06:13:47.254Z,1007.64
2019-01-12T06:14:47.173Z,1007.62
2019-01-12T06:15:47.124Z,1007.67
2019-01-12T06:16:47.059Z,1007.64
2019-01-12T06:17:47.007Z,1007.69
2019-01-12T06:18:46.965Z,1007.63
2019-01-12T06:19:46.911Z,1007.68
2019-01-12T06:20:46.834Z,1007.65
2019-01-12T06:21:46.842Z,1007.64
2019-01-12T06:22:46.769Z,1007.67
2019-01-12T06:23:46.691Z,1007.65
2019-01-12T06:24:46.631Z,1007.63
2019-01-12T06:25:46.602Z,1007.59
2019-01-12T06:26:46.508Z,1007.67
2019-01-12T06:27:46.477Z,1007.64
2019-01-12T06:28:46.437Z,1007.60
2019-01-12T06:29:46.372Z,1007.62
2019-01-12T06:30:46.265Z,1007.60
2019-01-12T06:31:46.208Z,1007.57
2019-01-12T06:32:46.230Z,1007.58
2019-01-12T06:33:46.153Z,1007.60
2019-01-12T06:34:46.073Z,1007.58
2019-01-12T06:35:46.086Z,1007.57
2019-01-12T06:36:45.951Z,1007.55
2019-01-12T06:37:45.863Z,1007.50
2019-01-12T06:38:45.881Z,1007.54
2019-01-12T06:39:45.762Z,1007.54
2019-01-12T06:40:45.710Z,1007.54
2019-01-12T06:41:45.689Z,1007.51
2019-01-12T06:42:45.599Z,1007.54
2019-01-12T06:43:45.622Z,1007.45
2019-01-12T06:44:45.503Z,1007.46
2019-01-12T06:45:45.482Z,1007.43
2019-01-12T06:46:45.404Z,1007.42
2019-01-12T06:47:45.389Z,1007.43
2019-01-12T06:48:45.307Z,1007.45
2019-01-12T06:49:45.219Z,1007.40
2019-01-12T06:50:45.146Z,1007.41
2019-01-12T06:51:45.164Z,1007.40
2019-01-12T06:52:45.033Z,1007.39
2019-01-12T06:53:45.034Z,1007.35
2019-01-12T06:54:44.972Z,1007.36
2019-01-12T06:55:44.885Z,1007.33
2019-01-12T06:56:44.824Z,1007.34
2019-01-12T06:57:44.802Z,1007.33
2019-01-12T06:58:44.732Z,1007.31
2019-01-12T06:59:44.675Z,1007.29
2019-01-12T07:00:44.649Z,1007.28
2019-01-12T07:01:44.582Z,1007.28
2019-01-12T07:02:44.507Z,1007.30
2019-01-12T07:03:44.418Z,1007.27
2019-01-12T07:04:44.414Z,1007.24
2019-01-12T07:05:44.332Z,1007.21
2019-01-12T07:06:44.285Z,1007.23
2019-01-12T07:07:44.237Z,1007.16
2019-01-12T07:08:44.162Z,1007.15
2019-01-12T07:09:44.129Z,1007.16
2019-01-12T07:10:44.033Z,1007.16
2019-01-12T07:11:44.030Z,1007.17
2019-01-12T07:12:43.948Z,1007.15
2019-01-12T07:13:43.874Z,1007.13
2019-01-12T07:14:43.830Z,1007.07
2019-01-12T07:15:43.747Z,1007.06
2019-01-12T07:16:43.715Z,1007.06
2019-01-12T07:17:43.660Z,1007.03
2019-01-12T07:18:43.597Z,1007.03
2019-01-12T07:19:43.567Z,1007.05
2019-01-12T07:20:43.476Z,1007.03
2019-01-12T07:21:43.412Z,1007.06
2019-01-12T07:22:43.401Z,1007.04
2019-01-12T07:23:43.316Z,1007.05
2019-01-12T07:24:43.307Z,1007.08
2019-01-12T07:25:43.226Z,1007.04
2019-01-12T07:26:43.137Z,1007.06
2019-01-12T07:27:43.112Z,1007.07
2019-01-12T07:28:43.029Z,1007.02
2019-01-12T07:29:43.009Z,1007.01
2019-01-12T07:30:42.913Z,1007.00
2019-01-12T07:31:42.863Z,1006.95
2019-01-12T07:32:42.808Z,1006.88
2019-01-12T07:33:42.790Z,1006.90
2019-01-12T07:34:42.732Z,1006.86
2019-01-12T07:35:42.675Z,1006.89
2019-01-12T07:36:42.578Z,1006.82
2019-01-12T07:37:42.527Z,1006.81
2019-01-12T07:38:42.474Z,1006.79
2019-01-12T07:39:42.412Z,1006.80
2019-01-12T07:40:42.384Z,1006.80
2019-01-12T07:41:42.304Z,1006.72
2019-01-12T07:42:42.253Z,1006.70
2019-01-12T07:43:42.203Z,1006.63
2019-01-12T07:44:42.147Z,1006.63
2019-01-12T07:45:42.139Z,1006.64
2019-01-12T07:46:42.035Z,1006.60
2019-01-12T07:47:42.007Z,1006.61
2019-01-12T07:48:41.930Z,1006.63
2019-01-12T07:49:41.876Z,1006.64
2019-01-12T07:50:41.854Z,1006.57
2019-01-12T07:51:41.753Z,1006.59
2019-01-12T07:52:41.693Z,1006.57
2019-01-12T07:53:41.649Z,1006.62
2019-01-12T07:54:41.619Z,1006.60
2019-01-12T07:55:41.544Z,1006.62
2019-01-12T07:56:41.490Z,1006.57
2019-01-12T07:57:41.413Z,1006.57
2019-01-12T07:58:41.381Z,1006.54
2019-01-12T07:59:41.297Z,1006.53
2019-01-12T08:00:41.270Z,1006.49
2019-01-12T08:01:41.196Z,1006.51
2019-01-12T08:02:41.129Z,1006.52
2019-01-12T08:03:41.097Z,1006.52
2019-01-12T08:04:41.023Z,1006.51
2019-01-12T08:05:40.995Z,1006.53
2019-01-12T08:06:40.951Z,1006.48
2019-01-12T08:07:40.859Z,1006.49
2019-01-12T08:08:40.821Z,1006.50
2019-01-12T08:09:40.745Z,1006.49
2019-01-12T08:10:40.721Z,1006.47
2019-01-12T08:11:40.626Z,1006.43
2019-01-12T08:12:40.579Z,1006.42
2019-01-12T08:13:40.523Z,1006.42
2019-01-12T08:14:40.465Z,1006.37
2019-01-12T08:15:40.445Z,1006.35
2019-01-12T08:16:40.375Z,1006.40
2019-01-12T08:17:40.301Z,1006.38
2019-01-12T08:18:40.303Z,1006.40
2019-01-12T08:19:40.198Z,1006.36
2019-01-12T08:20:40.162Z,1006.35
2019-01-12T08:21:40.074Z,1006.40
2019-01-12T08:22:40.040Z,1006.30
2019-01-12T08:23:39.987Z,1006.36
2019-01-12T08:24:39.908Z,1006.28
2019-01-12T08:25:39.887Z,1006.32
2019-01-12T08:26:39.792Z,1006.28
2019-01-12T08:27:39.739Z,1006.28
2019-01-12T08:28:39.694Z,1006.30
2019-01-12T08:29:39.635Z,1006.23
2019-01-12T08:30:39.649Z,1006.24
2019-01-12T08:31:39.533Z,1006.25
2019-01-12T08:32:39.477Z,1006.24
2019-01-12T08:33:39.405Z,1006.21
2019-01-12T08:34:39.361Z,1006.22
2019-01-12T08:35:39.298Z,1006.18
2019-01-12T08:36:39.279Z,1006.18
2019-01-12T08:37:39.190Z,1006.18
2019-01-12T08:38:39.152Z,1006.13
2019-01-12T08:39:39.100Z,1006.07
2019-01-12T08:40:39.026Z,1005.98
2019-01-12T08:41:38.990Z,1005.97
2019-01-12T08:42:38.912Z,1005.94
2019-01-12T08:43:38.896Z,1005.96
2019-01-12T08:44:38.791Z,1005.96
2019-01-12T08:45:38.767Z,1006.00
2019-01-12T08:46:38.711Z,1005.92
2019-01-12T08:47:38.650Z,1006.00
2019-01-12T08:48:38.574Z,1005.95
2019-01-12T08:49:38.530Z,1005.95
2019-01-12T08:50:38.489Z,1005.94
2019-01-12T08:51:38.440Z,1005.96
2019-01-12T08:52:38.358Z,1006.00
2019-01-12T08:53:38.305Z,1006.02
2019-01-12T08:54:38.276Z,1005.98
2019-01-12T08:55:38.205Z,1006.01
2019-01-12T08:56:38.654Z,1006.04
2019-01-12T08:57:38.075Z,1006.05
2019-01-12T08:58:38.077Z,1006.00
2019-01-12T08:59:37.985Z,1006.10
2019-01-12T09:00:37.904Z,1006.10
2019-01-12T09:01:37.890Z,1006.11
2019-01-12T09:02:37.807Z,1006.17
2019-01-12T09:03:37.760Z,1006.18
2019-01-12T09:04:43.415Z,1006.15
2019-01-12T09:05:37.654Z,1006.16
2019-01-12T09:06:37.615Z,1006.15
2019-01-12T09:07:37.593Z,1006.07
2019-01-12T09:08:37.469Z,1006.08
2019-01-12T09:09:37.417Z,1006.00
2019-01-12T09:10:37.417Z,1005.95
2019-01-12T09:11:37.325Z,1005.94
2019-01-12T09:12:37.246Z,1005.87
2019-01-12T09:13:37.202Z,1005.90
2019-01-12T09:14:37.137Z,1005.83
2019-01-12T09:15:37.088Z,1005.84
2019-01-12T09:16:37.073Z,1005.78
2019-01-12T09:17:36.967Z,1005.72
2019-01-12T09:18:36.918Z,1005.75
2019-01-12T09:19:36.858Z,1005.71
2019-01-12T09:20:36.836Z,1005.70
2019-01-12T09:21:36.766Z,1005.73
2019-01-12T09:22:36.680Z,1005.67
2019-01-12T09:23:36.659Z,1005.65
2019-01-12T09:24:36.594Z,1005.63
2019-01-12T09:25:36.567Z,1005.61
2019-01-12T09:26:36.536Z,1005.62
2019-01-12T09:27:36.420Z,1005.57
2019-01-12T09:28:36.379Z,1005.50
2019-01-12T09:29:36.299Z,1005.53
2019-01-12T09:30:36.244Z,1005.54
2019-01-12T09:31:36.191Z,1005.43
2019-01-12T09:32:36.159Z,1005.41
2019-01-12T09:33:36.083Z,1005.42
2019-01-12T09:34:36.029Z,1005.44
2019-01-12T09:35:35.987Z,1005.45
2019-01-12T09:36:35.916Z,1005.45
2019-01-12T09:37:35.885Z,1005.46
2019-01-12T09:38:35.800Z,1005.50
2019-01-12T09:39:35.764Z,1005.48
2019-01-12T09:40:35.719Z,1005.37
2019-01-12T09:41:35.636Z,1005.41
2019-01-12T09:42:35.631Z,1005.39
2019-01-12T09:43:35.532Z,1005.33
2019-01-12T09:44:35.477Z,1005.31
2019-01-12T09:45:35.443Z,1005.36
2019-01-12T09:46:35.353Z,1005.35
2019-01-12T09:47:35.324Z,1005.30
2019-01-12T09:48:35.246Z,1005.33
2019-01-12T09:49:35.187Z,1005.25
2019-01-12T09:50:35.136Z,1005.21
2019-01-12T09:51:35.097Z,1005.24
2019-01-12T09:52:35.044Z,1005.26
2019-01-12T09:53:34.967Z,1005.18
2019-01-12T09:54:34.915Z,1005.18
2019-01-12T09:55:34.887Z,1005.08
2019-01-12T09:56:34.815Z,1005.01
2019-01-12T09:57:34.811Z,1004.99
2019-01-12T09:58:34.719Z,1004.99
2019-01-12T09:59:34.663Z,1004.98
2019-01-12T10:00:34.571Z,1004.94
2019-01-12T10:01:34.525Z,1004.98
2019-01-12T10:02:34.511Z,1004.95
2019-01-12T10:03:34.425Z,1005.03
2019-01-12T10:04:34.367Z,1005.01
2019-01-12T10:05:34.331Z,1005.08
2019-01-12T10:06:34.243Z,1005.03
2019-01-12T10:07:34.226Z,1005.05
2019-01-12T10:08:34.136Z,1005.00
2019-01-12T10:09:34.096Z,1005.01
2019-01-12T10:10:34.019Z,1005.04
2019-01-12T10:11:33.967Z,1005.04
2019-01-12T10:12:33.945Z,1004.94
2019-01-12T10:13:33.858Z,1004.96
2019-01-12T10:14:33.795Z,1004.90
2019-01-12T10:15:33.745Z,1004.91
2019-01-12T10:16:33.740Z,1004.93
2019-01-12T10:17:33.688Z,1004.86
2019-01-12T10:18:33.579Z,1004.79
2019-01-12T10:19:33.528Z,1004.74
2019-01-12T10:20:33.473Z,1004.62
2019-01-12T10:21:33.413Z,1004.53
2019-01-12T10:22:33.353Z,1004.54
2019-01-12T10:23:33.332Z,1004.55
2019-01-12T10:24:33.249Z,1004.47
2019-01-12T10:25:33.191Z,1004.47
2019-01-12T10:26:33.133Z,1004.47
2019-01-12T10:27:33.081Z,1004.42
2019-01-12T10:28:33.066Z,1004.44
2019-01-12T10:29:32.964Z,1004.43
2019-01-12T10:30:32.909Z,1004.43
2019-01-12T10:31:32.857Z,1004.36
2019-01-12T10:32:32.802Z,1004.29
2019-01-12T10:33:32.774Z,1004.27
2019-01-12T10:34:32.688Z,1004.27
2019-01-12T10:35:32.638Z,1004.29
2019-01-12T10:36:32.582Z,1004.20
2019-01-12T10:37:32.527Z,1004.15
2019-01-12T10:38:32.671Z,1004.16
2019-01-12T10:39:32.424Z,1004.16
2019-01-12T10:40:32.356Z,1004.14
2019-01-12T10:41:32.304Z,1004.06
2019-01-12T10:42:32.243Z,1004.08
2019-01-12T10:43:32.217Z,1003.99
2019-01-12T10:44:32.135Z,1003.99
2019-01-12T10:45:32.091Z,1003.93
2019-01-12T10:46:32.035Z,1003.91
2019-01-12T10:47:31.969Z,1003.87
2019-01-12T10:48:31.940Z,1003.89
2019-01-12T10:49:31.861Z,1003.92
2019-01-12T10:50:31.811Z,1003.92
2019-01-12T10:51:31.750Z,1003.97
2019-01-12T10:52:31.694Z,1004.00
2019-01-12T10:53:31.659Z,1004.02
2019-01-12T10:54:31.583Z,1003.99
2019-01-12T10:55:31.530Z,1004.01
2019-01-12T10:56:31.474Z,1003.95
2019-01-12T10:57:31.416Z,1003.96
2019-01-12T10:58:31.411Z,1003.96
2019-01-12T10:59:31.306Z,1003.93
2019-01-12T11:00:31.245Z,1003.97
2019-01-12T11:01:31.202Z,1004.00
2019-01-12T11:02:31.134Z,1003.95
2019-01-12T11:03:31.107Z,1003.99
2019-01-12T11:04:31.031Z,1003.86
2019-01-12T11:05:30.970Z,1003.78
2019-01-12T11:06:30.921Z,1003.74
2019-01-12T11:07:30.856Z,1003.71
2019-01-12T11:08:30.834Z,1003.66
2019-01-12T11:09:30.744Z,1003.67
2019-01-12T11:10:30.693Z,1003.70
2019-01-12T11:11:30.630Z,1003.66
2019-01-12T11:12:30.578Z,1003.62
2019-01-12T11:13:30.554Z,1003.58
2019-01-12T11:14:30.479Z,1003.59
2019-01-12T11:15:30.421Z,1003.51
2019-01-12T11:16:30.360Z,1003.47
2019-01-12T11:17:30.316Z,1003.48
2019-01-12T11:18:30.287Z,1003.51
2019-01-12T11:19:30.207Z,1003.46
2019-01-12T11:20:30.129Z,1003.43
2019-01-12T11:21:30.136Z,1003.31
2019-01-12T11:22:30.017Z,1003.34
2019-01-12T11:23:29.969Z,1003.32
2019-01-12T11:24:29.932Z,1003.26
2019-01-12T11:25:29.852Z,1003.27
2019-01-12T11:26:29.801Z,1003.28
2019-01-12T11:27:29.752Z,1003.22
2019-01-12T11:28:29.782Z,1003.20
2019-01-12T11:29:29.706Z,1003.20
2019-01-12T11:30:29.583Z,1003.17
2019-01-12T11:31:29.535Z,1003.16
2019-01-12T11:32:29.536Z,1003.13
2019-01-12T11:33:29.692Z,1003.07
2019-01-12T11:34:29.399Z,1003.07
2019-01-12T11:35:29.344Z,1003.03
2019-01-12T11:36:29.297Z,1002.93
2019-01-12T11:37:29.269Z,1002.98
2019-01-12T11:38:29.147Z,1002.92
2019-01-12T11:39:29.106Z,1002.87
2019-01-12T11:40:29.019Z,1002.84
2019-01-12T11:41:28.973Z,1002.89
2019-01-12T11:42:28.906Z,1002.79
2019-01-12T11:43:28.851Z,1002.86
2019-01-12T11:44:28.821Z,1002.87
2019-01-12T11:45:28.750Z,1002.78
2019-01-12T11:46:28.696Z,1002.73
2019-01-12T11:47:28.628Z,1002.71
2019-01-12T11:48:28.774Z,1002.74
2019-01-12T11:49:28.565Z,1002.69
2019-01-12T11:50:28.461Z,1002.62
2019-01-12T11:51:28.448Z,1002.68
2019-01-12T11:52:28.357Z,1002.69
2019-01-12T11:53:28.307Z,1002.59
2019-01-12T11:54:28.282Z,1002.55
2019-01-12T11:55:28.194Z,1002.56
2019-01-12T11:56:28.130Z,1002.51
2019-01-12T11:57:28.094Z,1002.49
2019-01-12T11:58:28.015Z,1002.51
2019-01-12T11:59:27.991Z,1002.46
2019-01-12T12:00:27.914Z,1002.42
2019-01-12T12:01:27.862Z,1002.42
2019-01-12T12:02:27.799Z,1002.39
2019-01-12T12:03:27.752Z,1002.36
2019-01-12T12:04:27.756Z,1002.43